createdAt,value
2024-02-15T00:00:57.457Z,755.00
2024-02-15T00:01:57.497Z,754.00
2024-02-15T00:02:57.633Z,759.00
2024-02-15T00:03:57.752Z,762.00
2024-02-15T00:04:57.701Z,758.00
2024-02-15T00:05:57.803Z,756.00
2024-02-15T00:06:57.892Z,766.00
2024-02-15T00:07:57.917Z,761.00
2024-02-15T00:08:57.972Z,766.00
2024-02-15T00:09:58.008Z,750.00
2024-02-15T00:10:58.155Z,753.00
2024-02-15T00:11:58.198Z,755.00
2024-02-15T00:12:58.215Z,754.00
2024-02-15T00:13:58.292Z,765.00
2024-02-15T00:14:58.396Z,764.00
2024-02-15T00:15:58.429Z,767.00
2024-02-15T00:16:58.467Z,766.00
2024-02-15T00:17:58.662Z,760.00
2024-02-15T00:18:58.795Z,756.00
2024-02-15T00:19:58.667Z,753.00
2024-02-15T00:20:58.806Z,768.00
2024-02-15T00:21:58.812Z,772.00
2024-02-15T00:22:58.852Z,756.00
2024-02-15T00:23:58.925Z,764.00
2024-02-15T00:24:58.964Z,752.00
2024-02-15T00:25:59.057Z,757.00
2024-02-15T00:26:59.116Z,763.00
2024-02-15T00:27:59.162Z,759.00
2024-02-15T00:28:59.224Z,761.00
2024-02-15T00:29:59.364Z,761.00
2024-02-15T00:30:59.387Z,767.00
2024-02-15T00:31:59.459Z,763.00
2024-02-15T00:32:59.595Z,766.00
2024-02-15T00:33:59.870Z,768.00
2024-02-15T00:34:59.784Z,762.00
2024-02-15T00:35:59.885Z,762.00
2024-02-15T00:36:59.755Z,757.00
2024-02-15T00:37:59.811Z,759.00
2024-02-15T00:38:59.933Z,759.00
2024-02-15T00:39:59.962Z,768.00
2024-02-15T00:41:00.055Z,754.00
2024-02-15T00:42:00.123Z,760.00
2024-02-15T00:43:00.189Z,769.00
2024-02-15T00:44:00.280Z,752.00
2024-02-15T00:45:00.448Z,766.00
2024-02-15T00:46:00.391Z,758.00
2024-02-15T00:47:00.483Z,769.00
2024-02-15T00:48:00.669Z,759.00
2024-02-15T00:49:00.854Z,759.00
2024-02-15T00:50:00.818Z,759.00
2024-02-15T00:51:01.085Z,766.00
2024-02-15T00:52:00.830Z,749.00
2024-02-15T00:53:00.871Z,757.00
2024-02-15T00:54:00.957Z,764.00
2024-02-15T00:55:00.947Z,756.00
2024-02-15T00:56:00.977Z,759.00
2024-02-15T00:57:01.078Z,755.00
2024-02-15T00:58:01.120Z,759.00
2024-02-15T00:59:01.147Z,751.00
2024-02-15T01:00:01.381Z,766.00
2024-02-15T01:01:01.278Z,760.00
2024-02-15T01:02:01.310Z,760.00
2024-02-15T01:03:01.368Z,758.00
2024-02-15T01:04:01.415Z,758.00
2024-02-15T01:05:01.520Z,766.00
2024-02-15T01:06:01.512Z,759.00
2024-02-15T01:07:01.482Z,765.00
2024-02-15T01:08:01.492Z,753.00
2024-02-15T01:09:01.580Z,761.00
2024-02-15T01:10:01.570Z,753.00
2024-02-15T01:11:01.536Z,760.00
2024-02-15T01:12:01.624Z,752.00
2024-02-15T01:13:01.625Z,761.00
2024-02-15T01:14:01.656Z,764.00
2024-02-15T01:15:01.734Z,769.00
2024-02-15T01:16:01.747Z,767.00
2024-02-15T01:17:01.711Z,768.00
2024-02-15T01:18:01.845Z,769.00
2024-02-15T01:19:01.949Z,754.00
2024-02-15T01:20:01.872Z,761.00
2024-02-15T01:21:01.956Z,758.00
2024-02-15T01:22:02.015Z,760.00
2024-02-15T01:23:02.036Z,773.00
2024-02-15T01:24:02.138Z,757.00
2024-02-15T01:25:02.106Z,769.00
2024-02-15T01:26:02.132Z,760.00
2024-02-15T01:27:02.334Z,762.00
2024-02-15T01:28:02.210Z,758.00
2024-02-15T01:29:02.239Z,770.00
2024-02-15T01:30:02.491Z,763.00
2024-02-15T01:31:02.379Z,757.00
2024-02-15T01:32:02.361Z,759.00
2024-02-15T01:33:02.482Z,763.00
2024-02-15T01:34:02.605Z,760.00
2024-02-15T01:35:02.458Z,764.00
2024-02-15T01:36:02.571Z,761.00
2024-02-15T01:37:02.488Z,761.00
2024-02-15T01:38:02.496Z,764.00
2024-02-15T01:39:02.608Z,762.00
2024-02-15T01:40:02.620Z,763.00
2024-02-15T01:41:02.636Z,756.00
2024-02-15T01:42:02.662Z,764.00
2024-02-15T01:43:02.695Z,772.00
2024-02-15T01:44:02.681Z,748.00
2024-02-15T01:45:02.802Z,758.00
2024-02-15T01:46:02.764Z,758.00
2024-02-15T01:47:02.824Z,764.00
2024-02-15T01:48:02.891Z,765.00
2024-02-15T01:49:02.909Z,751.00
2024-02-15T01:50:02.831Z,760.00
2024-02-15T01:51:03.358Z,763.00
2024-02-15T01:52:02.903Z,762.00
2024-02-15T01:53:02.912Z,761.00
2024-02-15T01:54:03.030Z,760.00
2024-02-15T01:55:02.995Z,758.00
2024-02-15T01:56:03.036Z,761.00
2024-02-15T01:57:03.092Z,756.00
2024-02-15T01:58:03.088Z,753.00
2024-02-15T01:59:03.095Z,764.00
2024-02-15T02:00:03.205Z,770.00
2024-02-15T02:01:03.224Z,761.00
2024-02-15T02:02:03.235Z,757.00
2024-02-15T02:03:03.323Z,754.00
2024-02-15T02:04:03.460Z,754.00
2024-02-15T02:05:03.398Z,759.00
2024-02-15T02:06:03.402Z,760.00
2024-02-15T02:07:03.430Z,767.00
2024-02-15T02:08:03.437Z,762.00
2024-02-15T02:09:03.459Z,760.00
2024-02-15T02:10:03.405Z,766.00
2024-02-15T02:11:03.493Z,762.00
2024-02-15T02:12:03.505Z,757.00
2024-02-15T02:13:03.597Z,756.00
2024-02-15T02:14:03.605Z,756.00
2024-02-15T02:15:03.605Z,761.00
2024-02-15T02:16:03.628Z,756.00
2024-02-15T02:17:03.637Z,749.00
2024-02-15T02:18:03.763Z,756.00
2024-02-15T02:19:03.960Z,754.00
2024-02-15T02:20:03.846Z,773.00
2024-02-15T02:21:03.754Z,764.00
2024-02-15T02:22:03.763Z,768.00
2024-02-15T02:23:03.784Z,769.00
2024-02-15T02:24:03.907Z,761.00
2024-02-15T02:25:03.881Z,768.00
2024-02-15T02:26:03.881Z,764.00
2024-02-15T02:27:03.927Z,758.00
2024-02-15T02:28:03.971Z,762.00
2024-02-15T02:29:04.015Z,770.00
2024-02-15T02:30:04.073Z,749.00
2024-02-15T02:31:04.088Z,758.00
2024-02-15T02:32:04.139Z,763.00
2024-02-15T02:33:04.202Z,761.00
2024-02-15T02:34:04.265Z,764.00
2024-02-15T02:35:04.108Z,768.00
2024-02-15T02:36:04.288Z,754.00
2024-02-15T02:37:04.182Z,759.00
2024-02-15T02:38:04.178Z,765.00
2024-02-15T02:39:04.325Z,759.00
2024-02-15T02:40:04.194Z,752.00
2024-02-15T02:41:04.255Z,763.00
2024-02-15T02:42:04.323Z,766.00
2024-02-15T02:43:04.271Z,758.00
2024-02-15T02:44:04.285Z,755.00
2024-02-15T02:45:04.356Z,765.00
2024-02-15T02:46:04.296Z,758.00
2024-02-15T02:47:04.338Z,758.00
2024-02-15T02:48:04.460Z,759.00
2024-02-15T02:49:04.468Z,764.00
2024-02-15T02:50:04.329Z,764.00
2024-02-15T02:51:04.377Z,761.00
2024-02-15T02:52:04.332Z,762.00
2024-02-15T02:53:04.304Z,751.00
2024-02-15T02:54:04.363Z,769.00
2024-02-15T02:55:04.361Z,755.00
2024-02-15T02:56:04.364Z,752.00
2024-02-15T02:57:04.453Z,756.00
2024-02-15T02:58:04.480Z,757.00
2024-02-15T02:59:04.392Z,762.00
2024-02-15T03:00:04.993Z,763.00
2024-02-15T03:01:04.493Z,761.00
2024-02-15T03:02:04.449Z,764.00
2024-02-15T03:03:04.499Z,754.00
2024-02-15T03:04:04.431Z,756.00
2024-02-15T03:05:04.488Z,764.00
2024-02-15T03:06:04.519Z,769.00
2024-02-15T03:07:04.458Z,764.00
2024-02-15T03:08:04.449Z,762.00
2024-02-15T03:09:04.562Z,766.00
2024-02-15T03:10:04.480Z,764.00
2024-02-15T03:11:04.462Z,756.00
2024-02-15T03:12:04.483Z,749.00
2024-02-15T03:13:04.483Z,770.00
2024-02-15T03:14:04.491Z,759.00
2024-02-15T03:15:04.515Z,758.00
2024-02-15T03:16:04.513Z,759.00
2024-02-15T03:17:04.602Z,766.00
2024-02-15T03:18:04.890Z,753.00
2024-02-15T03:19:04.625Z,763.00
2024-02-15T03:20:04.555Z,770.00
2024-02-15T03:21:04.571Z,759.00
2024-02-15T03:22:04.553Z,763.00
2024-02-15T03:23:04.607Z,767.00
2024-02-15T03:24:04.569Z,755.00
2024-02-15T03:25:04.554Z,761.00
2024-02-15T03:26:04.564Z,757.00
2024-02-15T03:27:04.600Z,769.00
2024-02-15T03:28:04.681Z,757.00
2024-02-15T03:29:04.631Z,761.00
2024-02-15T03:30:04.685Z,770.00
2024-02-15T03:31:04.664Z,766.00
2024-02-15T03:32:04.603Z,764.00
2024-02-15T03:33:04.753Z,768.00
2024-02-15T03:34:04.812Z,763.00
2024-02-15T03:35:04.681Z,746.00
2024-02-15T03:36:04.698Z,758.00
2024-02-15T03:37:04.678Z,770.00
2024-02-15T03:38:04.717Z,759.00
2024-02-15T03:39:04.787Z,763.00
2024-02-15T03:40:04.735Z,762.00
2024-02-15T03:41:04.730Z,764.00
2024-02-15T03:42:04.804Z,756.00
2024-02-15T03:43:04.785Z,757.00
2024-02-15T03:44:04.756Z,766.00
2024-02-15T03:45:04.802Z,757.00
2024-02-15T03:46:04.766Z,759.00
2024-02-15T03:47:04.863Z,759.00
2024-02-15T03:48:04.832Z,764.00
2024-02-15T03:49:04.827Z,757.00
2024-02-15T03:50:04.832Z,757.00
2024-02-15T03:51:04.842Z,756.00
2024-02-15T03:52:04.845Z,762.00
2024-02-15T03:53:05.779Z,767.00
2024-02-15T03:54:04.925Z,756.00
2024-02-15T03:55:04.855Z,761.00
2024-02-15T03:56:04.892Z,763.00
2024-02-15T03:57:04.928Z,764.00
2024-02-15T03:58:04.947Z,759.00
2024-02-15T03:59:04.947Z,758.00
2024-02-15T04:00:05.004Z,766.00
2024-02-15T04:01:05.039Z,766.00
2024-02-15T04:02:05.007Z,758.00
2024-02-15T04:03:05.065Z,751.00
2024-02-15T04:04:12.211Z,600.00
2024-02-15T04:05:12.171Z,600.00
2024-02-15T04:06:12.245Z,600.00
2024-02-15T04:07:12.221Z,600.00
2024-02-15T04:08:12.192Z,600.00
2024-02-15T04:09:12.281Z,599.00
2024-02-15T04:10:12.162Z,603.00
2024-02-15T04:11:12.147Z,602.00
2024-02-15T04:12:12.281Z,603.00
2024-02-15T04:13:12.178Z,604.00
2024-02-15T04:14:12.172Z,602.00
2024-02-15T04:15:12.222Z,602.00
2024-02-15T04:16:12.155Z,606.00
2024-02-15T04:17:12.176Z,603.00
2024-02-15T04:18:12.233Z,605.00
2024-02-15T04:19:12.215Z,604.00
2024-02-15T04:20:12.154Z,600.00
2024-02-15T04:21:12.193Z,606.00
2024-02-15T04:22:12.168Z,606.00
2024-02-15T04:23:12.202Z,608.00
2024-02-15T04:24:12.312Z,604.00
2024-02-15T04:25:12.633Z,607.00
2024-02-15T04:26:12.163Z,606.00
2024-02-15T04:27:12.367Z,607.00
2024-02-15T04:28:12.197Z,608.00
2024-02-15T04:29:12.208Z,605.00
2024-02-15T04:30:12.376Z,606.00
2024-02-15T04:31:19.647Z,600.00
2024-02-15T04:32:19.605Z,600.00
2024-02-15T04:33:19.699Z,600.00
2024-02-15T04:34:20.345Z,600.00
2024-02-15T04:35:19.620Z,600.00
2024-02-15T04:36:19.632Z,601.00
2024-02-15T04:37:19.657Z,601.00
2024-02-15T04:38:19.661Z,605.00
2024-02-15T04:39:19.628Z,605.00
2024-02-15T04:40:19.666Z,602.00
2024-02-15T04:41:19.674Z,603.00
2024-02-15T04:42:19.679Z,603.00
2024-02-15T04:43:19.628Z,605.00
2024-02-15T04:44:19.641Z,603.00
2024-02-15T04:45:19.747Z,606.00
2024-02-15T04:46:19.655Z,606.00
2024-02-15T04:47:19.680Z,606.00
2024-02-15T04:48:19.702Z,607.00
2024-02-15T04:49:19.688Z,605.00
2024-02-15T04:50:19.818Z,605.00
2024-02-15T04:51:19.634Z,606.00
2024-02-15T04:52:19.639Z,606.00
2024-02-15T04:53:19.645Z,603.00
2024-02-15T04:54:19.684Z,604.00
2024-02-15T04:55:19.836Z,605.00
2024-02-15T04:56:19.663Z,603.00
2024-02-15T04:57:19.678Z,606.00
2024-02-15T04:58:19.686Z,607.00
2024-02-15T04:59:19.636Z,604.00
2024-02-15T05:00:19.672Z,602.00
2024-02-15T05:01:19.733Z,606.00
2024-02-15T05:02:19.660Z,603.00
2024-02-15T05:03:19.688Z,605.00
2024-02-15T05:04:19.636Z,604.00
2024-02-15T05:05:19.667Z,605.00
2024-02-15T05:06:19.697Z,605.00
2024-02-15T05:07:19.643Z,607.00
2024-02-15T05:08:19.652Z,604.00
2024-02-15T05:09:19.671Z,602.00
2024-02-15T05:10:19.647Z,604.00
2024-02-15T05:11:19.665Z,604.00
2024-02-15T05:12:19.684Z,602.00
2024-02-15T05:13:19.656Z,600.00
2024-02-15T05:14:19.645Z,602.00
2024-02-15T05:15:20.107Z,600.00
2024-02-15T05:16:19.732Z,600.00
2024-02-15T05:17:19.663Z,600.00
2024-02-15T05:18:19.785Z,600.00
2024-02-15T05:19:20.127Z,600.00
2024-02-15T05:20:19.736Z,600.00
2024-02-15T05:21:19.853Z,602.00
2024-02-15T05:22:20.144Z,600.00
2024-02-15T05:23:19.875Z,600.00
2024-02-15T05:24:19.968Z,600.00
2024-02-15T05:25:19.958Z,600.00
2024-02-15T05:26:20.034Z,600.00
2024-02-15T05:27:20.176Z,600.00
2024-02-15T05:28:20.174Z,600.00
2024-02-15T05:29:20.166Z,601.00
2024-02-15T05:30:20.268Z,600.00
2024-02-15T05:31:20.302Z,600.00
2024-02-15T05:32:20.340Z,600.00
2024-02-15T05:33:20.530Z,600.00
2024-02-15T05:34:20.586Z,600.00
2024-02-15T05:35:20.505Z,600.00
2024-02-15T05:36:20.549Z,601.00
2024-02-15T05:37:20.555Z,600.00
2024-02-15T05:38:20.626Z,600.00
2024-02-15T05:39:20.707Z,600.00
2024-02-15T05:40:20.705Z,600.00
2024-02-15T05:41:20.761Z,600.00
2024-02-15T05:42:20.789Z,600.00
2024-02-15T05:43:20.840Z,601.00
2024-02-15T05:44:20.910Z,600.00
2024-02-15T05:45:20.906Z,601.00
2024-02-15T05:46:20.993Z,600.00
2024-02-15T05:47:21.031Z,600.00
2024-02-15T05:48:21.178Z,602.00
2024-02-15T05:49:21.291Z,601.00
2024-02-15T05:50:21.117Z,602.00
2024-02-15T05:51:21.221Z,600.00
2024-02-15T05:52:21.284Z,600.00
2024-02-15T05:53:21.294Z,602.00
2024-02-15T05:54:21.365Z,600.00
2024-02-15T05:55:21.420Z,600.00
2024-02-15T05:56:21.440Z,600.00
2024-02-15T05:57:21.476Z,601.00
2024-02-15T05:58:21.524Z,600.00
2024-02-15T05:59:21.738Z,600.00
2024-02-15T06:00:23.218Z,602.00
2024-02-15T06:01:21.646Z,601.00
2024-02-15T06:02:21.698Z,598.00
2024-02-15T06:03:21.779Z,602.00
2024-02-15T06:04:21.840Z,602.00
2024-02-15T06:05:21.824Z,602.00
2024-02-15T06:06:21.975Z,601.00
2024-02-15T06:07:22.030Z,601.00
2024-02-15T06:08:21.928Z,600.00
2024-02-15T06:09:22.077Z,600.00
2024-02-15T06:10:22.036Z,600.00
2024-02-15T06:11:22.164Z,600.00
2024-02-15T06:12:22.157Z,603.00
2024-02-15T06:13:22.195Z,604.00
2024-02-15T06:14:22.209Z,603.00
2024-02-15T06:15:22.403Z,603.00
2024-02-15T06:16:22.289Z,600.00
2024-02-15T06:17:22.325Z,603.00
2024-02-15T06:18:22.545Z,602.00
2024-02-15T06:19:22.574Z,601.00
2024-02-15T06:20:22.567Z,601.00
2024-02-15T06:21:22.557Z,602.00
2024-02-15T06:22:22.544Z,601.00
2024-02-15T06:23:22.572Z,601.00
2024-02-15T06:24:22.711Z,601.00
2024-02-15T06:25:23.424Z,601.00
2024-02-15T06:26:22.706Z,603.00
2024-02-15T06:27:22.755Z,603.00
2024-02-15T06:28:22.808Z,602.00
2024-02-15T06:29:22.828Z,600.00
2024-02-15T06:30:22.897Z,603.00
2024-02-15T06:31:22.907Z,602.00
2024-02-15T06:32:22.955Z,603.00
2024-02-15T06:33:23.094Z,602.00
2024-02-15T06:34:23.135Z,601.00
2024-02-15T06:35:23.095Z,603.00
2024-02-15T06:36:23.139Z,602.00
2024-02-15T06:37:23.141Z,603.00
2024-02-15T06:38:23.234Z,605.00
2024-02-15T06:39:23.351Z,603.00
2024-02-15T06:40:23.264Z,602.00
2024-02-15T06:41:25.314Z,605.00
2024-02-15T06:42:23.391Z,606.00
2024-02-15T06:43:23.337Z,605.00
2024-02-15T06:44:23.294Z,607.00
2024-02-15T06:45:23.330Z,606.00
2024-02-15T06:46:23.348Z,606.00
2024-02-15T06:47:23.363Z,608.00
2024-02-15T06:48:23.452Z,606.00
2024-02-15T06:49:23.544Z,607.00
2024-02-15T06:50:23.351Z,606.00
2024-02-15T06:51:23.345Z,606.00
2024-02-15T06:52:23.345Z,606.00
2024-02-15T06:53:23.322Z,607.00
2024-02-15T06:54:23.416Z,605.00
2024-02-15T06:55:23.372Z,604.00
2024-02-15T06:56:23.316Z,607.00
2024-02-15T06:57:23.514Z,607.00
2024-02-15T06:58:23.325Z,607.00
2024-02-15T06:59:23.326Z,608.00
2024-02-15T07:00:23.393Z,609.00
2024-02-15T07:01:23.443Z,606.00
2024-02-15T07:02:23.353Z,606.00
2024-02-15T07:03:23.348Z,607.00
2024-02-15T07:04:23.349Z,609.00
2024-02-15T07:05:23.347Z,605.00
2024-02-15T07:06:23.466Z,609.00
2024-02-15T07:07:23.415Z,609.00
2024-02-15T07:08:23.346Z,608.00
2024-02-15T07:09:23.459Z,609.00
2024-02-15T07:10:23.328Z,609.00
2024-02-15T07:11:23.350Z,610.00
2024-02-15T07:12:23.386Z,611.00
2024-02-15T07:13:23.316Z,610.00
2024-02-15T07:14:23.432Z,612.00
2024-02-15T07:15:23.363Z,607.00
2024-02-15T07:16:23.339Z,611.00
2024-02-15T07:17:23.378Z,612.00
2024-02-15T07:18:26.593Z,613.00
2024-02-15T07:19:24.487Z,614.00
2024-02-15T07:20:23.351Z,614.00
2024-02-15T07:21:23.388Z,612.00
2024-02-15T07:22:23.376Z,614.00
2024-02-15T07:23:23.390Z,613.00
2024-02-15T07:24:23.419Z,611.00
2024-02-15T07:25:23.366Z,617.00
2024-02-15T07:26:23.326Z,613.00
2024-02-15T07:27:23.417Z,614.00
2024-02-15T07:28:23.411Z,612.00
2024-02-15T07:29:23.378Z,616.00
2024-02-15T07:30:26.009Z,612.00
2024-02-15T07:31:23.351Z,616.00
2024-02-15T07:32:23.382Z,613.00
2024-02-15T07:33:23.500Z,616.00
2024-02-15T07:34:23.506Z,610.00
2024-02-15T07:35:23.403Z,611.00
2024-02-15T07:36:23.536Z,603.00
2024-02-15T07:37:23.376Z,600.00
2024-02-15T07:38:23.413Z,600.00
2024-02-15T07:39:23.452Z,603.00
2024-02-15T07:40:23.410Z,603.00
2024-02-15T07:41:23.549Z,614.00
2024-02-15T07:42:23.428Z,621.00
2024-02-15T07:43:23.386Z,631.00
2024-02-15T07:44:23.395Z,638.00
2024-02-15T07:45:23.503Z,646.00
2024-02-15T07:46:23.432Z,654.00
2024-02-15T07:47:23.436Z,654.00
2024-02-15T07:48:23.529Z,658.00
2024-02-15T07:49:23.528Z,657.00
2024-02-15T07:50:23.417Z,658.00
2024-02-15T07:51:23.479Z,653.00
2024-02-15T07:52:23.406Z,649.00
2024-02-15T07:53:23.405Z,652.00
2024-02-15T07:54:23.482Z,649.00
2024-02-15T07:55:23.362Z,652.00
2024-02-15T07:56:23.404Z,645.00
2024-02-15T07:57:23.438Z,644.00
2024-02-15T07:58:23.392Z,648.00
2024-02-15T07:59:23.413Z,642.00
2024-02-15T08:00:23.415Z,645.00
2024-02-15T08:01:24.758Z,646.00
2024-02-15T08:02:23.445Z,645.00
2024-02-15T08:03:23.475Z,648.00
2024-02-15T08:04:23.555Z,644.00
2024-02-15T08:05:23.588Z,643.00
2024-02-15T08:06:23.627Z,644.00
2024-02-15T08:07:23.560Z,644.00
2024-02-15T08:08:23.621Z,645.00
2024-02-15T08:09:23.631Z,646.00
2024-02-15T08:10:23.632Z,647.00
2024-02-15T08:11:23.638Z,648.00
2024-02-15T08:12:23.693Z,648.00
2024-02-15T08:13:23.656Z,644.00
2024-02-15T08:14:23.666Z,646.00
2024-02-15T08:15:23.745Z,644.00
2024-02-15T08:16:23.663Z,647.00
2024-02-15T08:17:23.681Z,647.00
2024-02-15T08:18:23.765Z,644.00
2024-02-15T08:19:23.814Z,648.00
2024-02-15T08:20:23.749Z,646.00
2024-02-15T08:21:23.799Z,646.00
2024-02-15T08:22:23.753Z,645.00
2024-02-15T08:23:23.787Z,651.00
2024-02-15T08:24:23.811Z,649.00
2024-02-15T08:25:23.781Z,648.00
2024-02-15T08:26:23.841Z,650.00
2024-02-15T08:27:24.029Z,653.00
2024-02-15T08:28:25.758Z,649.00
2024-02-15T08:29:24.007Z,650.00
2024-02-15T08:30:25.605Z,648.00
2024-02-15T08:31:24.123Z,647.00
2024-02-15T08:32:24.250Z,646.00
2024-02-15T08:33:24.426Z,649.00
2024-02-15T08:34:24.343Z,647.00
2024-02-15T08:35:24.771Z,648.00
2024-02-15T08:36:24.541Z,647.00
2024-02-15T08:37:24.479Z,650.00
2024-02-15T08:38:24.471Z,650.00
2024-02-15T08:39:24.564Z,648.00
2024-02-15T08:40:24.580Z,651.00
2024-02-15T08:41:24.624Z,654.00
2024-02-15T08:42:24.612Z,652.00
2024-02-15T08:43:24.708Z,652.00
2024-02-15T08:44:24.683Z,654.00
2024-02-15T08:45:24.975Z,654.00
2024-02-15T08:46:24.696Z,656.00
2024-02-15T08:47:24.696Z,659.00
2024-02-15T08:48:24.787Z,656.00
2024-02-15T08:49:24.828Z,661.00
2024-02-15T08:50:25.151Z,659.00
2024-02-15T08:51:25.469Z,656.00
2024-02-15T08:52:24.844Z,657.00
2024-02-15T08:53:24.796Z,659.00
2024-02-15T08:54:24.870Z,659.00
2024-02-15T08:55:24.879Z,662.00
2024-02-15T08:56:24.908Z,659.00
2024-02-15T08:57:24.966Z,666.00
2024-02-15T08:58:24.980Z,665.00
2024-02-15T08:59:25.030Z,663.00
2024-02-15T09:00:25.226Z,666.00
2024-02-15T09:01:25.165Z,671.00
2024-02-15T09:02:25.225Z,665.00
2024-02-15T09:03:25.379Z,663.00
2024-02-15T09:04:25.362Z,663.00
2024-02-15T09:05:25.392Z,671.00
2024-02-15T09:06:25.557Z,668.00
2024-02-15T09:07:25.592Z,670.00
2024-02-15T09:08:25.559Z,665.00
2024-02-15T09:09:25.677Z,669.00
2024-02-15T09:10:25.714Z,665.00
2024-02-15T09:11:25.821Z,668.00
2024-02-15T09:12:25.930Z,668.00
2024-02-15T09:13:25.919Z,669.00
2024-02-15T09:14:25.956Z,673.00
2024-02-15T09:15:26.211Z,668.00
2024-02-15T09:16:26.126Z,676.00
2024-02-15T09:17:26.143Z,669.00
2024-02-15T09:18:26.440Z,678.00
2024-02-15T09:19:26.339Z,681.00
2024-02-15T09:20:26.375Z,665.00
2024-02-15T09:21:26.546Z,660.00
2024-02-15T09:22:26.422Z,660.00
2024-02-15T09:23:26.479Z,664.00
2024-02-15T09:24:26.581Z,666.00
2024-02-15T09:25:26.550Z,667.00
2024-02-15T09:26:26.677Z,665.00
2024-02-15T09:27:26.616Z,687.00
2024-02-15T09:28:26.625Z,670.00
2024-02-15T09:29:26.663Z,694.00
2024-02-15T09:30:26.713Z,691.00
2024-02-15T09:31:26.706Z,696.00
2024-02-15T09:32:26.761Z,676.00
2024-02-15T09:33:26.961Z,676.00
2024-02-15T09:34:26.935Z,701.00
2024-02-15T09:35:26.942Z,691.00
2024-02-15T09:36:26.890Z,684.00
2024-02-15T09:37:26.966Z,689.00
2024-02-15T09:38:26.946Z,690.00
2024-02-15T09:39:26.938Z,680.00
2024-02-15T09:40:27.028Z,679.00
2024-02-15T09:41:26.952Z,676.00
2024-02-15T09:42:26.984Z,679.00
2024-02-15T09:43:27.010Z,688.00
2024-02-15T09:44:27.002Z,674.00
2024-02-15T09:45:27.062Z,680.00
2024-02-15T09:46:26.995Z,694.00
2024-02-15T09:47:27.077Z,690.00
2024-02-15T09:48:27.198Z,689.00
2024-02-15T09:49:27.270Z,690.00
2024-02-15T09:50:27.148Z,693.00
2024-02-15T09:51:27.250Z,687.00
2024-02-15T09:52:27.278Z,695.00
2024-02-15T09:53:27.333Z,703.00
2024-02-15T09:54:27.440Z,708.00
2024-02-15T09:55:27.506Z,695.00
2024-02-15T09:56:27.569Z,706.00
2024-02-15T09:57:27.579Z,709.00
2024-02-15T09:58:28.251Z,713.00
2024-02-15T09:59:27.734Z,715.00
2024-02-15T10:00:27.867Z,707.00
2024-02-15T10:01:27.834Z,707.00
2024-02-15T10:02:27.889Z,717.00
2024-02-15T10:03:27.929Z,715.00
2024-02-15T10:04:27.934Z,717.00
2024-02-15T10:05:28.023Z,716.00
2024-02-15T10:06:28.031Z,713.00
2024-02-15T10:07:28.044Z,711.00
2024-02-15T10:08:28.050Z,716.00
2024-02-15T10:09:28.121Z,720.00
2024-02-15T10:10:28.168Z,714.00
2024-02-15T10:11:28.181Z,710.00
2024-02-15T10:12:28.228Z,714.00
2024-02-15T10:13:28.184Z,712.00
2024-02-15T10:14:28.234Z,720.00
2024-02-15T10:15:30.662Z,724.00
2024-02-15T10:16:28.207Z,719.00
2024-02-15T10:17:28.354Z,722.00
2024-02-15T10:18:28.273Z,740.00
2024-02-15T10:19:28.237Z,729.00
2024-02-15T10:20:28.200Z,738.00
2024-02-15T10:21:28.317Z,727.00
2024-02-15T10:22:28.192Z,738.00
2024-02-15T10:23:28.184Z,756.00
2024-02-15T10:24:28.192Z,752.00
2024-02-15T10:25:28.240Z,750.00
2024-02-15T10:26:28.203Z,747.00
2024-02-15T10:27:28.232Z,758.00
2024-02-15T10:28:28.188Z,749.00
2024-02-15T10:29:28.187Z,750.00
2024-02-15T10:30:28.262Z,754.00
2024-02-15T10:31:28.276Z,756.00
2024-02-15T10:32:28.281Z,761.00
2024-02-15T10:33:28.303Z,765.00
2024-02-15T10:34:28.398Z,769.00
2024-02-15T10:35:28.260Z,757.00
2024-02-15T10:36:28.204Z,765.00
2024-02-15T10:37:28.199Z,773.00
2024-02-15T10:38:28.195Z,775.00
2024-02-15T10:39:28.250Z,780.00
2024-02-15T10:40:28.232Z,770.00
2024-02-15T10:41:28.249Z,774.00
2024-02-15T10:42:28.355Z,780.00
2024-02-15T10:43:28.231Z,777.00
2024-02-15T10:44:28.247Z,783.00
2024-02-15T10:45:28.291Z,783.00
2024-02-15T10:46:28.269Z,773.00
2024-02-15T10:47:28.259Z,781.00
2024-02-15T10:48:28.288Z,783.00
2024-02-15T10:49:28.417Z,782.00
2024-02-15T10:50:28.239Z,780.00
2024-02-15T10:51:28.257Z,793.00
2024-02-15T10:52:28.250Z,789.00
2024-02-15T10:53:28.203Z,785.00
2024-02-15T10:54:28.321Z,799.00
2024-02-15T10:55:28.217Z,797.00
2024-02-15T10:56:28.258Z,798.00
2024-02-15T10:57:28.260Z,791.00
2024-02-15T10:58:28.255Z,790.00
2024-02-15T10:59:28.248Z,801.00
2024-02-15T11:00:28.343Z,796.00
2024-02-15T11:01:28.336Z,798.00
2024-02-15T11:02:28.348Z,799.00
2024-02-15T11:03:28.345Z,798.00
2024-02-15T11:04:28.221Z,799.00
2024-02-15T11:05:28.341Z,803.00
2024-02-15T11:06:28.535Z,808.00
2024-02-15T11:07:31.723Z,813.00
2024-02-15T11:08:28.342Z,807.00
2024-02-15T11:09:28.355Z,799.00
2024-02-15T11:10:28.367Z,817.00
2024-02-15T11:11:28.408Z,812.00
2024-02-15T11:12:28.335Z,819.00
2024-02-15T11:13:28.343Z,811.00
2024-02-15T11:14:28.462Z,813.00
2024-02-15T11:15:28.364Z,814.00
2024-02-15T11:16:28.432Z,815.00
2024-02-15T11:17:28.395Z,812.00
2024-02-15T11:18:28.496Z,816.00
2024-02-15T11:19:28.417Z,819.00
2024-02-15T11:20:28.388Z,820.00
2024-02-15T11:21:28.355Z,818.00
2024-02-15T11:22:28.501Z,817.00
2024-02-15T11:23:35.814Z,827.00
2024-02-15T11:24:29.448Z,827.00
2024-02-15T11:25:28.431Z,828.00
2024-02-15T11:26:28.372Z,831.00
2024-02-15T11:27:28.395Z,827.00
2024-02-15T11:28:28.525Z,837.00
2024-02-15T11:29:28.389Z,833.00
2024-02-15T11:30:28.524Z,833.00
2024-02-15T11:31:29.365Z,830.00
2024-02-15T11:32:28.393Z,831.00
2024-02-15T11:33:28.514Z,826.00
2024-02-15T11:34:28.615Z,829.00
2024-02-15T11:35:28.670Z,825.00
2024-02-15T11:36:28.638Z,819.00
2024-02-15T11:37:28.669Z,826.00
2024-02-15T11:38:28.745Z,825.00
2024-02-15T11:39:28.784Z,826.00
2024-02-15T11:40:28.873Z,822.00
2024-02-15T11:41:28.935Z,808.00
2024-02-15T11:42:28.991Z,819.00
2024-02-15T11:43:29.052Z,816.00
2024-02-15T11:44:29.112Z,809.00
2024-02-15T11:45:29.266Z,816.00
2024-02-15T11:46:29.277Z,824.00
2024-02-15T11:47:29.325Z,813.00
2024-02-15T11:48:29.538Z,827.00
2024-02-15T11:49:29.503Z,811.00
2024-02-15T11:50:29.525Z,807.00
2024-02-15T11:51:29.615Z,822.00
2024-02-15T11:52:29.640Z,813.00
2024-02-15T11:53:29.681Z,806.00
2024-02-15T11:54:29.768Z,811.00
2024-02-15T11:55:29.843Z,817.00
2024-02-15T11:56:29.855Z,812.00
2024-02-15T11:57:29.997Z,799.00
2024-02-15T11:58:29.981Z,800.00
2024-02-15T11:59:30.050Z,799.00
2024-02-15T12:00:30.154Z,799.00
2024-02-15T12:01:30.156Z,803.00
2024-02-15T12:02:30.197Z,800.00
2024-02-15T12:03:30.276Z,805.00
2024-02-15T12:04:30.274Z,807.00
2024-02-15T12:05:30.310Z,807.00
2024-02-15T12:06:30.541Z,813.00
2024-02-15T12:07:30.495Z,809.00
2024-02-15T12:08:30.400Z,814.00
2024-02-15T12:09:30.405Z,810.00
2024-02-15T12:10:30.478Z,812.00
2024-02-15T12:11:30.484Z,821.00
2024-02-15T12:12:30.492Z,818.00
2024-02-15T12:13:30.556Z,814.00
2024-02-15T12:14:30.563Z,815.00
2024-02-15T12:15:31.375Z,819.00
2024-02-15T12:16:30.555Z,818.00
2024-02-15T12:17:30.682Z,818.00
2024-02-15T12:18:30.798Z,821.00
2024-02-15T12:19:30.714Z,820.00
2024-02-15T12:20:30.699Z,820.00
2024-02-15T12:21:30.797Z,819.00
2024-02-15T12:22:30.757Z,817.00
2024-02-15T12:23:30.789Z,813.00
2024-02-15T12:24:30.815Z,815.00
2024-02-15T12:25:30.845Z,816.00
2024-02-15T12:26:30.944Z,817.00
2024-02-15T12:27:30.956Z,827.00
2024-02-15T12:28:30.953Z,816.00
2024-02-15T12:29:31.006Z,816.00